Time,TemperatureF,DewpointF,PressureIn,WindDirection,WindDirectionDegrees,WindSpeedMPH,WindSpeedGustMPH,Humidity,HourlyPrecipIn,Conditions,Clouds,dailyrainin,SoftwareType,DateUTC
2013-04-03 00:00:00,29.7,12.5,30.28,NNW,330,8.2,-999.0,47,0.00,,,0.00,SSEC-RIG,2013-04-03 05:00:00,
2013-04-03 00:05:00,29.7,12.6,30.28,NNW,333,7.9,-999.0,48,0.00,,,0.00,SSEC-RIG,2013-04-03 05:05:00,
2013-04-03 00:10:00,29.6,12.7,30.28,NNW,333,8.8,-999.0,48,0.00,,,0.00,SSEC-RIG,2013-04-03 05:10:00,
2013-04-03 00:15:00,29.4,12.7,30.28,NNW,338,8.8,-999.0,48,0.00,,,0.00,SSEC-RIG,2013-04-03 05:15:00,
2013-04-03 00:20:00,29.3,12.6,30.28,NNW,340,9.7,-999.0,48,0.00,,,0.00,SSEC-RIG,2013-04-03 05:20:00,
2013-04-03 00:25:00,29.2,12.8,30.28,NNW,338,9.2,-999.0,49,0.00,,,0.00,SSEC-RIG,2013-04-03 05:25:00,
2013-04-03 00:30:00,29.3,13.0,30.28,NNW,336,8.1,-999.0,49,0.00,,,0.00,SSEC-RIG,2013-04-03 05:30:00,
2013-04-03 00:35:00,29.2,12.9,30.28,NNW,332,9.6,-999.0,49,0.00,,,0.00,SSEC-RIG,2013-04-03 05:35:00,
2013-04-03 00:45:00,29.0,13.0,30.28,NNW,333,9.1,-999.0,50,0.00,,,0.00,SSEC-RIG,2013-04-03 05:45:00,
2013-04-03 00:50:00,29.0,13.0,30.28,NNW,339,9.6,-999.0,50,0.00,,,0.00,SSEC-RIG,2013-04-03 05:50:00,
2013-04-03 01:00:00,28.6,13.2,30.28,NNW,341,9.7,-999.0,51,0.00,,,0.00,SSEC-RIG,2013-04-03 06:00:00,
2013-04-03 01:05:00,28.6,13.3,30.28,NNW,339,9.5,-999.0,51,0.00,,,0.00,SSEC-RIG,2013-04-03 06:05:00,
2013-04-03 01:10:00,28.6,13.5,30.28,NNW,336,8.5,-999.0,52,0.00,,,0.00,SSEC-RIG,2013-04-03 06:10:00,
2013-04-03 01:20:00,28.5,13.4,30.28,NNW,336,7.5,-999.0,52,0.00,,,0.00,SSEC-RIG,2013-04-03 06:20:00,
2013-04-03 01:25:00,28.4,13.3,30.28,NNW,341,9.3,-999.0,52,0.00,,,0.00,SSEC-RIG,2013-04-03 06:25:00,
2013-04-03 01:30:00,28.2,13.7,30.28,NNW,343,8.8,-999.0,53,0.00,,,0.00,SSEC-RIG,2013-04-03 06:30:00,
2013-04-03 01:40:00,27.9,14.0,30.28,NNW,345,8.6,-999.0,55,0.00,,,0.00,SSEC-RIG,2013-04-03 06:40:00,
2013-04-03 01:45:00,27.8,14.1,30.28,NNW,348,6.9,-999.0,55,0.00,,,0.00,SSEC-RIG,2013-04-03 06:45:00,
2013-04-03 01:50:00,27.7,14.4,30.29,NNW,347,6.1,-999.0,56,0.00,,,0.00,SSEC-RIG,2013-04-03 06:50:00,
2013-04-03 01:55:00,27.6,14.5,30.29,NNW,344,6.8,-999.0,57,0.00,,,0.00,SSEC-RIG,2013-04-03 06:55:00,
2013-04-03 02:00:00,27.7,14.4,30.29,NNW,339,7.4,-999.0,56,0.00,,,0.00,SSEC-RIG,2013-04-03 07:00:00,
2013-04-03 02:05:00,27.6,14.6,30.29,NNW,339,6.1,-999.0,57,0.00,,,0.00,SSEC-RIG,2013-04-03 07:05:00,
2013-04-03 02:10:00,27.7,14.1,30.29,NNW,343,6.5,-999.0,55,0.00,,,0.00,SSEC-RIG,2013-04-03 07:10:00,
2013-04-03 02:15:00,27.7,14.1,30.29,NNW,334,6.0,-999.0,55,0.00,,,0.00,SSEC-RIG,2013-04-03 07:15:00,
2013-04-03 02:20:00,27.7,13.8,30.29,NNW,334,6.0,-999.0,54,0.00,,,0.00,SSEC-RIG,2013-04-03 07:20:00,
2013-04-03 02:25:00,27.7,13.8,30.29,NNW,339,6.0,-999.0,54,0.00,,,0.00,SSEC-RIG,2013-04-03 07:25:00,
2013-04-03 02:30:00,27.6,13.7,30.29,NNW,336,6.4,-999.0,55,0.00,,,0.00,SSEC-RIG,2013-04-03 07:30:00,
2013-04-03 02:35:00,27.6,13.7,30.29,NNW,331,6.4,-999.0,54,0.00,,,0.00,SSEC-RIG,2013-04-03 07:35:00,
2013-04-03 02:40:00,27.5,13.5,30.29,NNW,330,8.0,-999.0,54,0.00,,,0.00,SSEC-RIG,2013-04-03 07:40:00,
2013-04-03 02:50:00,27.5,13.5,30.29,NNW,333,8.0,-999.0,54,0.00,,,0.00,SSEC-RIG,2013-04-03 07:50:00,
2013-04-03 02:55:00,27.6,13.3,30.30,NNW,340,10.5,-999.0,54,0.00,,,0.00,SSEC-RIG,2013-04-03 07:55:00,
2013-04-03 03:00:00,27.5,13.1,30.30,NNW,342,11.8,-999.0,53,0.00,,,0.00,SSEC-RIG,2013-04-03 08:00:00,
2013-04-03 03:05:00,27.4,13.1,30.30,NNW,341,11.6,-999.0,53,0.00,,,0.00,SSEC-RIG,2013-04-03 08:05:00,
2013-04-03 03:10:00,27.4,13.3,30.30,NNW,346,10.4,-999.0,54,0.00,,,0.00,SSEC-RIG,2013-04-03 08:10:00,
2013-04-03 03:15:00,27.3,13.4,30.30,NNW,348,9.7,-999.0,55,0.00,,,0.00,SSEC-RIG,2013-04-03 08:15:00,
2013-04-03 03:20:00,27.2,13.6,30.30,North,349,9.0,-999.0,55,0.00,,,0.00,SSEC-RIG,2013-04-03 08:20:00,
2013-04-03 03:25:00,27.1,13.7,30.30,North,353,7.8,-999.0,56,0.00,,,0.00,SSEC-RIG,2013-04-03 08:25:00,
2013-04-03 03:30:00,27.1,13.6,30.30,NNW,346,8.0,-999.0,55,0.00,,,0.00,SSEC-RIG,2013-04-03 08:30:00,
2013-04-03 03:35:00,27.1,13.4,30.30,NNW,339,8.8,-999.0,55,0.00,,,0.00,SSEC-RIG,2013-04-03 08:35:00,
2013-04-03 03:40:00,27.1,13.7,30.30,NNW,336,5.0,-999.0,56,0.00,,,0.00,SSEC-RIG,2013-04-03 08:40:00,
2013-04-03 03:45:00,27.1,13.7,30.30,NNW,333,5.6,-999.0,56,0.00,,,0.00,SSEC-RIG,2013-04-03 08:45:00,
2013-04-03 03:50:00,27.1,13.6,30.30,NW,321,5.9,-999.0,55,0.00,,,0.00,SSEC-RIG,2013-04-03 08:50:00,
2013-04-03 03:55:00,27.1,13.5,30.31,NW,323,5.7,-999.0,55,0.00,,,0.00,SSEC-RIG,2013-04-03 08:55:00,
2013-04-03 04:00:00,27.2,13.4,30.31,NW,323,6.8,-999.0,55,0.00,,,0.00,SSEC-RIG,2013-04-03 09:00:00,
2013-04-03 04:05:00,27.2,13.3,30.31,NW,326,6.5,-999.0,54,0.00,,,0.00,SSEC-RIG,2013-04-03 09:05:00,
2013-04-03 04:10:00,27.2,13.2,30.31,NNW,329,6.5,-999.0,54,0.00,,,0.00,SSEC-RIG,2013-04-03 09:10:00,
2013-04-03 04:15:00,27.2,13.2,30.31,NNW,336,6.1,-999.0,54,0.00,,,0.00,SSEC-RIG,2013-04-03 09:15:00,
2013-04-03 04:25:00,27.3,13.2,30.31,NNW,344,5.4,-999.0,54,0.00,,,0.00,SSEC-RIG,2013-04-03 09:25:00,
2013-04-03 04:30:00,27.3,13.2,30.32,NNW,339,4.6,-999.0,54,0.00,,,0.00,SSEC-RIG,2013-04-03 09:30:00,
2013-04-03 04:35:00,27.2,13.1,30.32,NNW,343,6.2,-999.0,54,0.00,,,0.00,SSEC-RIG,2013-04-03 09:35:00,
2013-04-03 04:40:00,27.2,13.1,30.32,NNW,344,6.6,-999.0,54,0.00,,,0.00,SSEC-RIG,2013-04-03 09:40:00,
2013-04-03 04:45:00,27.3,12.8,30.32,NNW,342,7.4,-999.0,53,0.00,,,0.00,SSEC-RIG,2013-04-03 09:45:00,
2013-04-03 04:55:00,27.2,12.8,30.32,NNW,341,6.1,-999.0,53,0.00,,,0.00,SSEC-RIG,2013-04-03 09:55:00,
2013-04-03 05:00:00,27.1,13.0,30.32,NNW,342,5.6,-999.0,54,0.00,,,0.00,SSEC-RIG,2013-04-03 10:00:00,
2013-04-03 05:05:00,27.1,12.9,30.32,NNW,337,5.6,-999.0,54,0.00,,,0.00,SSEC-RIG,2013-04-03 10:05:00,
2013-04-03 05:10:00,27.1,13.0,30.32,NNW,344,5.8,-999.0,54,0.00,,,0.00,SSEC-RIG,2013-04-03 10:10:00,
2013-04-03 05:15:00,27.1,13.0,30.32,North,353,6.4,-999.0,54,0.00,,,0.00,SSEC-RIG,2013-04-03 10:15:00,
2013-04-03 05:20:00,27.0,12.9,30.32,North,353,7.5,-999.0,54,0.00,,,0.00,SSEC-RIG,2013-04-03 10:20:00,
2013-04-03 05:25:00,26.8,12.6,30.32,North,360,8.4,-999.0,54,0.00,,,0.00,SSEC-RIG,2013-04-03 10:25:00,
2013-04-03 05:30:00,26.8,12.7,30.32,North,354,7.5,-999.0,54,0.00,,,0.00,SSEC-RIG,2013-04-03 10:30:00,
2013-04-03 05:35:00,26.8,12.9,30.32,North,357,6.8,-999.0,54,0.00,,,0.00,SSEC-RIG,2013-04-03 10:35:00,
2013-04-03 05:40:00,26.8,13.1,30.32,North,360,5.6,-999.0,55,0.00,,,0.00,SSEC-RIG,2013-04-03 10:40:00,
2013-04-03 05:45:00,26.8,12.9,30.33,North,359,5.9,-999.0,54,0.00,,,0.00,SSEC-RIG,2013-04-03 10:45:00,
2013-04-03 05:50:00,26.9,12.7,30.33,North,358,5.9,-999.0,54,0.00,,,0.00,SSEC-RIG,2013-04-03 10:50:00,
2013-04-03 06:00:00,26.8,12.4,30.33,North,4,6.0,-999.0,53,0.00,,,0.00,SSEC-RIG,2013-04-03 11:00:00,
2013-04-03 06:05:00,26.7,12.4,30.34,North,2,4.7,-999.0,53,0.00,,,0.00,SSEC-RIG,2013-04-03 11:05:00,
2013-04-03 06:10:00,26.7,12.3,30.34,North,358,4.6,-999.0,53,0.00,,,0.00,SSEC-RIG,2013-04-03 11:10:00,
2013-04-03 06:15:00,26.8,12.3,30.34,North,2,4.9,-999.0,53,0.00,,,0.00,SSEC-RIG,2013-04-03 11:15:00,
2013-04-03 06:20:00,26.8,12.2,30.34,North,357,4.9,-999.0,53,0.00,,,0.00,SSEC-RIG,2013-04-03 11:20:00,
2013-04-03 06:25:00,26.9,12.4,30.34,North,351,4.9,-999.0,53,0.00,,,0.00,SSEC-RIG,2013-04-03 11:25:00,
2013-04-03 06:30:00,26.9,12.6,30.35,NNW,347,3.0,-999.0,53,0.00,,,0.00,SSEC-RIG,2013-04-03 11:30:00,
2013-04-03 06:35:00,26.8,12.3,30.35,NNW,343,4.1,-999.0,53,0.00,,,0.00,SSEC-RIG,2013-04-03 11:35:00,
2013-04-03 06:40:00,26.9,12.4,30.35,NNW,343,3.8,-999.0,53,0.00,,,0.00,SSEC-RIG,2013-04-03 11:40:00,
2013-04-03 06:45:00,26.9,12.4,30.36,NNW,335,4.1,-999.0,53,0.00,,,0.00,SSEC-RIG,2013-04-03 11:45:00,
2013-04-03 06:50:00,26.8,12.6,30.36,NNW,331,3.7,-999.0,53,0.00,,,0.00,SSEC-RIG,2013-04-03 11:50:00,
2013-04-03 06:55:00,26.9,12.6,30.36,NNW,334,3.4,-999.0,54,0.00,,,0.00,SSEC-RIG,2013-04-03 11:55:00,
2013-04-03 07:00:00,26.9,12.4,30.36,NNW,336,3.4,-999.0,53,0.00,,,0.00,SSEC-RIG,2013-04-03 12:00:00,
2013-04-03 07:05:00,27.0,12.5,30.37,NNW,330,3.6,-999.0,53,0.00,,,0.00,SSEC-RIG,2013-04-03 12:05:00,
2013-04-03 07:10:00,27.1,12.4,30.37,NNW,342,3.7,-999.0,53,0.00,,,0.00,SSEC-RIG,2013-04-03 12:10:00,
2013-04-03 07:15:00,27.2,12.6,30.37,NNW,336,3.2,-999.0,53,0.00,,,0.00,SSEC-RIG,2013-04-03 12:15:00,
2013-04-03 07:20:00,27.2,12.3,30.38,NNW,332,2.7,-999.0,52,0.00,,,0.00,SSEC-RIG,2013-04-03 12:20:00,
2013-04-03 07:25:00,27.2,12.3,30.38,NNW,344,3.3,-999.0,52,0.00,,,0.00,SSEC-RIG,2013-04-03 12:25:00,
2013-04-03 07:30:00,27.3,12.0,30.38,NNW,336,2.9,-999.0,51,0.00,,,0.00,SSEC-RIG,2013-04-03 12:30:00,
2013-04-03 07:35:00,27.4,12.1,30.38,NNW,332,2.8,-999.0,51,0.00,,,0.00,SSEC-RIG,2013-04-03 12:35:00,
2013-04-03 07:40:00,27.5,11.9,30.38,NNW,348,2.1,-999.0,51,0.00,,,0.00,SSEC-RIG,2013-04-03 12:40:00,
2013-04-03 07:45:00,27.7,12.2,30.38,North,6,1.9,-999.0,51,0.00,,,0.00,SSEC-RIG,2013-04-03 12:45:00,
2013-04-03 07:50:00,27.9,12.1,30.38,North,349,2.1,-999.0,50,0.00,,,0.00,SSEC-RIG,2013-04-03 12:50:00,
2013-04-03 07:55:00,28.0,11.3,30.39,North,9,2.1,-999.0,48,0.00,,,0.00,SSEC-RIG,2013-04-03 12:55:00,
2013-04-03 08:00:00,28.2,11.5,30.39,North,7,2.3,-999.0,48,0.00,,,0.00,SSEC-RIG,2013-04-03 13:00:00,
2013-04-03 08:05:00,28.1,11.7,30.39,North,6,2.8,-999.0,49,0.00,,,0.00,SSEC-RIG,2013-04-03 13:05:00,
2013-04-03 08:10:00,28.1,11.9,30.39,North,352,2.8,-999.0,49,0.00,,,0.00,SSEC-RIG,2013-04-03 13:10:00,
2013-04-03 08:15:00,27.8,11.4,30.39,NNW,347,2.9,-999.0,49,0.00,,,0.00,SSEC-RIG,2013-04-03 13:15:00,
2013-04-03 08:20:00,28.3,11.7,30.39,NNW,341,2.0,-999.0,48,0.00,,,0.00,SSEC-RIG,2013-04-03 13:20:00,
2013-04-03 08:25:00,28.4,11.9,30.40,NNW,332,2.2,-999.0,49,0.00,,,0.00,SSEC-RIG,2013-04-03 13:25:00,
2013-04-03 08:35:00,28.7,11.7,30.40,North,10,1.8,-999.0,47,0.00,,,0.00,SSEC-RIG,2013-04-03 13:35:00,
2013-04-03 08:40:00,29.0,11.9,30.40,NNW,336,2.1,-999.0,47,0.00,,,0.00,SSEC-RIG,2013-04-03 13:40:00,
2013-04-03 08:45:00,29.2,12.0,30.39,North,3,2.5,-999.0,47,0.00,,,0.00,SSEC-RIG,2013-04-03 13:45:00,
2013-04-03 08:50:00,29.2,11.6,30.40,North,358,2.8,-999.0,46,0.00,,,0.00,SSEC-RIG,2013-04-03 13:50:00,
2013-04-03 08:55:00,29.2,11.4,30.40,North,357,2.9,-999.0,46,0.00,,,0.00,SSEC-RIG,2013-04-03 13:55:00,
2013-04-03 09:00:00,29.3,11.6,30.40,NNE,12,3.4,-999.0,46,0.00,,,0.00,SSEC-RIG,2013-04-03 14:00:00,
2013-04-03 09:05:00,29.1,11.3,30.40,NNE,14,4.5,-999.0,46,0.00,,,0.00,SSEC-RIG,2013-04-03 14:05:00,
2013-04-03 09:10:00,29.0,11.2,30.40,NNE,12,4.2,-999.0,46,0.00,,,0.00,SSEC-RIG,2013-04-03 14:10:00,
2013-04-03 09:15:00,29.3,11.8,30.39,NNE,15,4.4,-999.0,47,0.00,,,0.00,SSEC-RIG,2013-04-03 14:15:00,
2013-04-03 09:20:00,29.6,11.7,30.39,North,10,4.2,-999.0,46,0.00,,,0.00,SSEC-RIG,2013-04-03 14:20:00,
2013-04-03 09:25:00,29.9,12.0,30.40,NNE,20,3.9,-999.0,46,0.00,,,0.00,SSEC-RIG,2013-04-03 14:25:00,
2013-04-03 09:30:00,30.3,12.1,30.40,NNE,21,4.0,-999.0,45,0.00,,,0.00,SSEC-RIG,2013-04-03 14:30:00,
2013-04-03 09:35:00,30.1,11.0,30.40,NNE,21,5.0,-999.0,44,0.00,,,0.00,SSEC-RIG,2013-04-03 14:35:00,
2013-04-03 09:40:00,30.3,11.8,30.40,NNE,24,5.0,-999.0,45,0.00,,,0.00,SSEC-RIG,2013-04-03 14:40:00,
2013-04-03 09:45:00,30.6,11.7,30.40,NNE,26,4.3,-999.0,44,0.00,,,0.00,SSEC-RIG,2013-04-03 14:45:00,
2013-04-03 09:50:00,30.7,10.0,30.40,NNE,26,3.4,-999.0,41,0.00,,,0.00,SSEC-RIG,2013-04-03 14:50:00,
2013-04-03 10:00:00,31.6,9.0,30.40,NNE,29,3.3,-999.0,37,0.00,,,0.00,SSEC-RIG,2013-04-03 15:00:00,
2013-04-03 10:05:00,32.1,9.2,30.40,NNE,29,3.6,-999.0,37,0.00,,,0.00,SSEC-RIG,2013-04-03 15:05:00,
2013-04-03 10:10:00,32.3,6.5,30.40,NNE,26,3.5,-999.0,32,0.00,,,0.00,SSEC-RIG,2013-04-03 15:10:00,
2013-04-03 10:15:00,32.6,4.3,30.40,NNE,29,4.2,-999.0,29,0.00,,,0.00,SSEC-RIG,2013-04-03 15:15:00,
2013-04-03 10:20:00,32.5,2.3,30.40,NNE,32,4.7,-999.0,26,0.00,,,0.00,SSEC-RIG,2013-04-03 15:20:00,
2013-04-03 10:25:00,32.7,3.1,30.40,NNE,30,5.0,-999.0,27,0.00,,,0.00,SSEC-RIG,2013-04-03 15:25:00,
2013-04-03 10:30:00,32.8,3.7,30.40,NNE,23,6.5,-999.0,28,0.00,,,0.00,SSEC-RIG,2013-04-03 15:30:00,
2013-04-03 10:35:00,33.1,5.6,30.40,NNE,27,5.8,-999.0,30,0.00,,,0.00,SSEC-RIG,2013-04-03 15:35:00,
2013-04-03 10:40:00,33.5,6.7,30.39,NNE,25,6.2,-999.0,31,0.00,,,0.00,SSEC-RIG,2013-04-03 15:40:00,
2013-04-03 10:45:00,33.3,6.7,30.39,NNE,24,7.2,-999.0,31,0.00,,,0.00,SSEC-RIG,2013-04-03 15:45:00,
2013-04-03 10:50:00,33.5,6.5,30.39,NNE,23,7.8,-999.0,31,0.00,,,0.00,SSEC-RIG,2013-04-03 15:50:00,
2013-04-03 10:55:00,33.8,6.7,30.39,NNE,22,5.8,-999.0,31,0.00,,,0.00,SSEC-RIG,2013-04-03 15:55:00,
2013-04-03 11:00:00,34.0,6.2,30.39,NNE,24,6.0,-999.0,30,0.00,,,0.00,SSEC-RIG,2013-04-03 16:00:00,
2013-04-03 11:05:00,34.2,6.2,30.39,NNE,26,5.3,-999.0,30,0.00,,,0.00,SSEC-RIG,2013-04-03 16:05:00,
2013-04-03 11:10:00,34.1,4.9,30.38,NNE,25,6.6,-999.0,28,0.00,,,0.00,SSEC-RIG,2013-04-03 16:10:00,
2013-04-03 11:15:00,34.3,5.0,30.38,NNE,25,7.1,-999.0,28,0.00,,,0.00,SSEC-RIG,2013-04-03 16:15:00,
2013-04-03 11:25:00,34.3,5.0,30.38,NNE,16,8.1,-999.0,28,0.00,,,0.00,SSEC-RIG,2013-04-03 16:25:00,
2013-04-03 11:35:00,35.5,7.5,30.38,NNE,16,4.3,-999.0,30,0.00,,,0.00,SSEC-RIG,2013-04-03 16:35:00,
2013-04-03 11:45:00,35.1,9.1,30.38,NNE,27,5.8,-999.0,33,0.00,,,0.00,SSEC-RIG,2013-04-03 16:45:00,
2013-04-03 11:50:00,35.7,8.7,30.37,NNE,23,5.8,-999.0,31,0.00,,,0.00,SSEC-RIG,2013-04-03 16:50:00,
2013-04-03 12:00:00,35.6,7.9,30.37,NNE,31,6.0,-999.0,30,0.00,,,0.00,SSEC-RIG,2013-04-03 17:00:00,
2013-04-03 12:05:00,35.1,7.6,30.37,NNE,32,6.0,-999.0,30,0.00,,,0.00,SSEC-RIG,2013-04-03 17:05:00,
2013-04-03 12:10:00,36.0,8.2,30.37,NNE,21,5.5,-999.0,30,0.00,,,0.00,SSEC-RIG,2013-04-03 17:10:00,
2013-04-03 12:19:00,35.6,6.3,30.37,NNE,17,6.2,-999.0,28,0.00,,,0.00,SSEC-RIG,2013-04-03 17:19:00,
2013-04-03 12:25:00,35.5,5.3,30.36,NNE,25,6.8,-999.0,27,0.00,,,0.00,SSEC-RIG,2013-04-03 17:25:00,
2013-04-03 12:30:00,36.0,4.5,30.36,NNE,27,4.0,-999.0,25,0.00,,,0.00,SSEC-RIG,2013-04-03 17:30:00,
2013-04-03 12:35:00,36.6,4.6,30.37,ENE,59,2.7,-999.0,25,0.00,,,0.00,SSEC-RIG,2013-04-03 17:35:00,
2013-04-03 12:40:00,37.7,5.6,30.37,North,4,3.0,-999.0,25,0.00,,,0.00,SSEC-RIG,2013-04-03 17:40:00,
2013-04-03 12:45:00,37.1,5.6,30.37,North,358,3.3,-999.0,26,0.00,,,0.00,SSEC-RIG,2013-04-03 17:45:00,
2013-04-03 12:55:00,37.8,5.5,30.37,SSE,157,1.9,-999.0,25,0.00,,,0.00,SSEC-RIG,2013-04-03 17:55:00,
2013-04-03 13:00:00,38.1,5.7,30.37,SSE,159,2.4,-999.0,25,0.00,,,0.00,SSEC-RIG,2013-04-03 18:00:00,
2013-04-03 13:05:00,38.1,5.8,30.36,South,174,5.1,-999.0,25,0.00,,,0.00,SSEC-RIG,2013-04-03 18:05:00,
2013-04-03 13:10:00,37.7,5.8,30.36,SSE,168,3.2,-999.0,25,0.00,,,0.00,SSEC-RIG,2013-04-03 18:10:00,
2013-04-03 13:20:00,38.6,7.3,30.36,East,99,4.4,-999.0,26,0.00,,,0.00,SSEC-RIG,2013-04-03 18:20:00,
2013-04-03 13:30:00,38.6,6.2,30.36,East,88,2.6,-999.0,25,0.00,,,0.00,SSEC-RIG,2013-04-03 18:30:00,
2013-04-03 13:40:00,38.4,7.7,30.36,SE,138,3.2,-999.0,27,0.00,,,0.00,SSEC-RIG,2013-04-03 18:40:00,
2013-04-03 13:50:00,39.6,8.4,30.36,South,173,2.5,-999.0,27,0.00,,,0.00,SSEC-RIG,2013-04-03 18:50:00,
2013-04-03 13:55:00,38.5,8.6,30.36,SSW,195,3.0,-999.0,28,0.00,,,0.00,SSEC-RIG,2013-04-03 18:55:00,
2013-04-03 14:05:00,38.5,8.8,30.36,South,169,5.5,-999.0,28,0.00,,,0.00,SSEC-RIG,2013-04-03 19:05:00,
2013-04-03 14:15:00,39.3,8.1,30.35,SE,146,7.3,-999.0,26,0.00,,,0.00,SSEC-RIG,2013-04-03 19:15:00,
2013-04-03 14:20:00,39.8,9.3,30.35,South,176,9.9,-999.0,27,0.00,,,0.00,SSEC-RIG,2013-04-03 19:20:00,
2013-04-03 14:25:00,39.5,9.6,30.35,SSW,203,10.5,-999.0,28,0.00,,,0.00,SSEC-RIG,2013-04-03 19:25:00,
2013-04-03 14:30:00,39.1,8.8,30.34,South,186,9.1,-999.0,27,0.00,,,0.00,SSEC-RIG,2013-04-03 19:30:00,
2013-04-03 14:35:00,39.8,8.8,30.34,South,186,6.4,-999.0,27,0.00,,,0.00,SSEC-RIG,2013-04-03 19:35:00,
2013-04-03 14:40:00,39.9,8.4,30.34,South,172,4.9,-999.0,26,0.00,,,0.00,SSEC-RIG,2013-04-03 19:40:00,
2013-04-03 14:45:00,40.3,9.0,30.34,SSE,149,4.3,-999.0,26,0.00,,,0.00,SSEC-RIG,2013-04-03 19:45:00,
2013-04-03 14:50:00,39.4,8.8,30.34,SE,136,9.4,-999.0,27,0.00,,,0.00,SSEC-RIG,2013-04-03 19:50:00,
2013-04-03 14:55:00,38.9,7.9,30.34,SSE,148,10.3,-999.0,27,0.00,,,0.00,SSEC-RIG,2013-04-03 19:55:00,
2013-04-03 15:00:00,40.1,8.9,30.33,SSE,159,6.3,-999.0,26,0.00,,,0.00,SSEC-RIG,2013-04-03 20:00:00,
2013-04-03 15:05:00,40.1,8.6,30.33,SSE,163,5.2,-999.0,26,0.00,,,0.00,SSEC-RIG,2013-04-03 20:05:00,
2013-04-03 15:15:00,41.2,7.5,30.33,SSW,202,4.7,-999.0,24,0.00,,,0.00,SSEC-RIG,2013-04-03 20:15:00,
2013-04-03 15:25:00,41.2,7.6,30.33,South,191,4.9,-999.0,24,0.00,,,0.00,SSEC-RIG,2013-04-03 20:25:00,
2013-04-03 15:35:00,40.1,8.9,30.32,SSE,160,3.0,-999.0,26,0.00,,,0.00,SSEC-RIG,2013-04-03 20:35:00,
2013-04-03 15:40:00,41.0,9.2,30.32,South,186,3.8,-999.0,26,0.00,,,0.00,SSEC-RIG,2013-04-03 20:40:00,
2013-04-03 15:45:00,41.2,9.7,30.32,SSW,199,7.8,-999.0,26,0.00,,,0.00,SSEC-RIG,2013-04-03 20:45:00,
2013-04-03 15:55:00,41.7,9.4,30.31,South,188,5.3,-999.0,25,0.00,,,0.00,SSEC-RIG,2013-04-03 20:55:00,
2013-04-03 16:00:00,41.2,8.2,30.31,SSW,193,7.5,-999.0,25,0.00,,,0.00,SSEC-RIG,2013-04-03 21:00:00,
2013-04-03 16:05:00,40.9,7.5,30.31,SSW,203,7.3,-999.0,24,0.00,,,0.00,SSEC-RIG,2013-04-03 21:05:00,
2013-04-03 16:15:00,41.2,7.4,30.31,SSW,195,6.4,-999.0,24,0.00,,,0.00,SSEC-RIG,2013-04-03 21:15:00,
2013-04-03 16:20:00,40.9,7.8,30.31,South,191,7.0,-999.0,24,0.00,,,0.00,SSEC-RIG,2013-04-03 21:20:00,
2013-04-03 16:25:00,41.4,8.6,30.31,SSW,193,8.5,-999.0,25,0.00,,,0.00,SSEC-RIG,2013-04-03 21:25:00,
2013-04-03 16:30:00,41.8,8.8,30.31,SSW,192,6.4,-999.0,25,0.00,,,0.00,SSEC-RIG,2013-04-03 21:30:00,
2013-04-03 16:35:00,41.5,8.3,30.30,South,181,8.5,-999.0,24,0.00,,,0.00,SSEC-RIG,2013-04-03 21:35:00,
2013-04-03 16:40:00,41.6,7.4,30.30,SSW,208,7.8,-999.0,23,0.00,,,0.00,SSEC-RIG,2013-04-03 21:40:00,
2013-04-03 16:45:00,41.2,6.2,30.30,SSW,207,10.7,-999.0,22,0.00,,,0.00,SSEC-RIG,2013-04-03 21:45:00,
2013-04-03 16:50:00,41.7,5.7,30.30,SSW,194,9.2,-999.0,21,0.00,,,0.00,SSEC-RIG,2013-04-03 21:50:00,
2013-04-03 16:55:00,41.9,6.0,30.30,SSW,200,5.9,-999.0,21,0.00,,,0.00,SSEC-RIG,2013-04-03 21:55:00,
2013-04-03 17:00:00,42.0,7.3,30.30,South,183,6.1,-999.0,23,0.00,,,0.00,SSEC-RIG,2013-04-03 22:00:00,
2013-04-03 17:05:00,41.4,7.9,30.30,SSW,201,8.4,-999.0,24,0.00,,,0.00,SSEC-RIG,2013-04-03 22:05:00,
2013-04-03 17:10:00,41.6,8.0,30.30,SSW,192,8.8,-999.0,24,0.00,,,0.00,SSEC-RIG,2013-04-03 22:10:00,
2013-04-03 17:20:00,41.8,9.0,30.29,SSW,193,7.7,-999.0,25,0.00,,,0.00,SSEC-RIG,2013-04-03 22:20:00,
2013-04-03 17:25:00,41.9,9.4,30.29,SSW,204,6.7,-999.0,25,0.00,,,0.00,SSEC-RIG,2013-04-03 22:25:00,
2013-04-03 17:30:00,41.4,9.7,30.29,SSW,200,8.0,-999.0,26,0.00,,,0.00,SSEC-RIG,2013-04-03 22:30:00,
2013-04-03 17:40:00,41.3,9.9,30.29,SSW,210,8.9,-999.0,26,0.00,,,0.00,SSEC-RIG,2013-04-03 22:40:00,
2013-04-03 17:45:00,41.6,10.5,30.29,SW,220,6.2,-999.0,27,0.00,,,0.00,SSEC-RIG,2013-04-03 22:45:00,
2013-04-03 17:50:00,41.7,10.4,30.29,SW,222,7.0,-999.0,26,0.00,,,0.00,SSEC-RIG,2013-04-03 22:50:00,
2013-04-03 17:55:00,41.8,10.6,30.28,SSW,212,6.1,-999.0,27,0.00,,,0.00,SSEC-RIG,2013-04-03 22:55:00,
2013-04-03 18:05:00,41.4,10.8,30.28,SSW,200,7.7,-999.0,27,0.00,,,0.00,SSEC-RIG,2013-04-03 23:05:00,
2013-04-03 18:10:00,41.8,11.0,30.27,SSW,201,5.2,-999.0,27,0.00,,,0.00,SSEC-RIG,2013-04-03 23:10:00,
2013-04-03 18:15:00,42.0,11.3,30.27,SSW,194,6.8,-999.0,27,0.00,,,0.00,SSEC-RIG,2013-04-03 23:15:00,
2013-04-03 18:25:00,42.2,11.7,30.27,South,189,4.2,-999.0,28,0.00,,,0.00,SSEC-RIG,2013-04-03 23:25:00,
2013-04-03 18:35:00,41.8,11.9,30.27,SSW,196,8.5,-999.0,28,0.00,,,0.00,SSEC-RIG,2013-04-03 23:35:00,
2013-04-03 18:45:00,41.6,12.5,30.27,SSW,198,8.3,-999.0,29,0.00,,,0.00,SSEC-RIG,2013-04-03 23:45:00,
2013-04-03 18:50:00,41.2,13.0,30.27,SW,215,8.4,-999.0,31,0.00,,,0.00,SSEC-RIG,2013-04-03 23:50:00,
2013-04-03 18:55:00,40.9,13.4,30.27,SW,215,9.8,-999.0,31,0.00,,,0.00,SSEC-RIG,2013-04-03 23:55:00,
2013-04-03 19:00:00,40.8,12.8,30.27,SSW,211,11.3,-999.0,31,0.00,,,0.00,SSEC-RIG,2013-04-04 00:00:00,
2013-04-03 19:10:00,40.6,12.5,30.27,SW,219,9.9,-999.0,30,0.00,,,0.00,SSEC-RIG,2013-04-04 00:10:00,
2013-04-03 19:15:00,40.5,12.8,30.27,SW,221,9.5,-999.0,31,0.00,,,0.00,SSEC-RIG,2013-04-04 00:15:00,
2013-04-03 19:20:00,40.5,12.8,30.27,SW,219,10.5,-999.0,31,0.00,,,0.00,SSEC-RIG,2013-04-04 00:20:00,
2013-04-03 19:25:00,40.3,13.0,30.27,SW,218,9.5,-999.0,31,0.00,,,0.00,SSEC-RIG,2013-04-04 00:25:00,
2013-04-03 19:35:00,40.1,13.0,30.26,SW,218,9.9,-999.0,32,0.00,,,0.00,SSEC-RIG,2013-04-04 00:35:00,
2013-04-03 19:40:00,40.1,13.1,30.26,SW,217,9.5,-999.0,32,0.00,,,0.00,SSEC-RIG,2013-04-04 00:40:00,
2013-04-03 19:50:00,40.0,13.4,30.26,SW,218,9.7,-999.0,33,0.00,,,0.00,SSEC-RIG,2013-04-04 00:50:00,
2013-04-03 19:55:00,39.8,13.5,30.26,SW,217,9.7,-999.0,33,0.00,,,0.00,SSEC-RIG,2013-04-04 00:55:00,
2013-04-03 20:05:00,39.8,13.5,30.26,SSW,211,10.9,-999.0,33,0.00,,,0.00,SSEC-RIG,2013-04-04 01:05:00,
2013-04-03 20:10:00,39.8,13.4,30.26,SSW,208,11.0,-999.0,33,0.00,,,0.00,SSEC-RIG,2013-04-04 01:10:00,
2013-04-03 20:15:00,39.6,13.5,30.26,SSW,203,10.6,-999.0,33,0.00,,,0.00,SSEC-RIG,2013-04-04 01:15:00,
2013-04-03 20:20:00,39.5,13.7,30.26,SSW,204,10.6,-999.0,34,0.00,,,0.00,SSEC-RIG,2013-04-04 01:20:00,
2013-04-03 20:30:00,39.3,13.9,30.26,SSW,204,11.1,-999.0,34,0.00,,,0.00,SSEC-RIG,2013-04-04 01:30:00,
2013-04-03 20:40:00,39.2,14.1,30.26,SSW,205,12.4,-999.0,35,0.00,,,0.00,SSEC-RIG,2013-04-04 01:40:00,
2013-04-03 20:50:00,38.9,14.7,30.26,SSW,203,13.2,-999.0,36,0.00,,,0.00,SSEC-RIG,2013-04-04 01:50:00,
2013-04-03 21:00:00,38.6,15.2,30.26,SSW,203,12.7,-999.0,37,0.00,,,0.00,SSEC-RIG,2013-04-04 02:00:00,
2013-04-03 21:10:00,38.4,15.5,30.26,SSW,205,12.2,-999.0,38,0.00,,,0.00,SSEC-RIG,2013-04-04 02:10:00,
2013-04-03 21:20:00,38.2,15.5,30.26,SSW,201,11.0,-999.0,38,0.00,,,0.00,SSEC-RIG,2013-04-04 02:20:00,
2013-04-03 21:25:00,38.2,15.4,30.26,SSW,201,11.1,-999.0,38,0.00,,,0.00,SSEC-RIG,2013-04-04 02:25:00,
2013-04-03 21:30:00,38.2,15.4,30.26,SSW,202,11.5,-999.0,38,0.00,,,0.00,SSEC-RIG,2013-04-04 02:30:00,
2013-04-03 21:35:00,38.1,15.4,30.26,SSW,202,11.8,-999.0,38,0.00,,,0.00,SSEC-RIG,2013-04-04 02:35:00,
2013-04-03 21:40:00,38.0,15.5,30.26,SSW,202,12.3,-999.0,39,0.00,,,0.00,SSEC-RIG,2013-04-04 02:40:00,
2013-04-03 21:50:00,37.8,15.5,30.25,SSW,202,12.7,-999.0,39,0.00,,,0.00,SSEC-RIG,2013-04-04 02:50:00,
2013-04-03 21:55:00,37.7,15.6,30.25,SSW,203,12.5,-999.0,39,0.00,,,0.00,SSEC-RIG,2013-04-04 02:55:00,
2013-04-03 22:05:00,37.6,15.8,30.25,SSW,206,12.3,-999.0,40,0.00,,,0.00,SSEC-RIG,2013-04-04 03:05:00,
2013-04-03 22:15:00,37.5,15.9,30.25,SSW,204,12.0,-999.0,40,0.00,,,0.00,SSEC-RIG,2013-04-04 03:15:00,
2013-04-03 22:20:00,37.5,16.0,30.25,SSW,208,12.6,-999.0,40,0.00,,,0.00,SSEC-RIG,2013-04-04 03:20:00,
2013-04-03 22:25:00,37.3,16.1,30.25,SSW,207,12.4,-999.0,41,0.00,,,0.00,SSEC-RIG,2013-04-04 03:25:00,
2013-04-03 22:30:00,37.2,16.1,30.25,SSW,212,12.6,-999.0,41,0.00,,,0.00,SSEC-RIG,2013-04-04 03:30:00,
2013-04-03 22:35:00,37.1,16.2,30.25,SW,215,11.7,-999.0,41,0.00,,,0.00,SSEC-RIG,2013-04-04 03:35:00,
2013-04-03 22:40:00,37.2,16.1,30.24,SW,215,11.5,-999.0,41,0.00,,,0.00,SSEC-RIG,2013-04-04 03:40:00,
2013-04-03 22:50:00,37.1,16.3,30.24,SSW,209,11.3,-999.0,42,0.00,,,0.00,SSEC-RIG,2013-04-04 03:50:00,
2013-04-03 22:55:00,37.1,16.5,30.24,SSW,212,11.9,-999.0,42,0.00,,,0.00,SSEC-RIG,2013-04-04 03:55:00,
2013-04-03 23:05:00,36.9,16.8,30.24,SSW,212,12.9,-999.0,43,0.00,,,0.00,SSEC-RIG,2013-04-04 04:05:00,
2013-04-03 23:10:00,36.8,16.9,30.24,SSW,211,12.5,-999.0,43,0.00,,,0.00,SSEC-RIG,2013-04-04 04:10:00,
2013-04-03 23:15:00,36.9,17.0,30.24,SW,215,12.8,-999.0,43,0.00,,,0.00,SSEC-RIG,2013-04-04 04:15:00,
2013-04-03 23:20:00,36.9,17.0,30.23,SSW,211,12.7,-999.0,43,0.00,,,0.00,SSEC-RIG,2013-04-04 04:20:00,
2013-04-03 23:25:00,36.8,17.1,30.23,SSW,208,12.4,-999.0,43,0.00,,,0.00,SSEC-RIG,2013-04-04 04:25:00,
2013-04-03 23:30:00,36.6,17.1,30.23,SSW,208,12.1,-999.0,44,0.00,,,0.00,SSEC-RIG,2013-04-04 04:30:00,
2013-04-03 23:35:00,36.6,17.1,30.23,SSW,211,12.1,-999.0,44,0.00,,,0.00,SSEC-RIG,2013-04-04 04:35:00,
2013-04-03 23:40:00,36.5,17.2,30.23,SSW,206,11.5,-999.0,44,0.00,,,0.00,SSEC-RIG,2013-04-04 04:40:00,
2013-04-03 23:45:00,36.0,17.6,30.22,SSW,194,9.9,-999.0,46,0.00,,,0.00,SSEC-RIG,2013-04-04 04:45:00,
2013-04-03 23:50:00,35.3,18.2,30.22,SSE,168,8.6,-999.0,48,0.00,,,0.00,SSEC-RIG,2013-04-04 04:50:00,
2013-04-03 23:55:00,35.1,17.9,30.22,South,173,9.7,-999.0,48,0.00,,,0.00,SSEC-RIG,2013-04-04 04:55:00,